TimeCDT,TemperatureF,Dew PointF,Humidity,Sea Level PressureIn,VisibilityMPH,Wind Direction,Wind SpeedMPH,Gust SpeedMPH,PrecipitationIn,Events,Conditions,WindDirDegrees,DateUTC
12:15 AM,75.4,65.3,71,29.72,10.0,West,4.6,-,N/A,,Clear,280,2013-07-23 05:15:00
12:35 AM,75.4,66.0,73,29.73,10.0,North,8.1,-,N/A,,Scattered Clouds,350,2013-07-23 05:35:00
12:55 AM,72.5,62.6,71,29.75,10.0,North,5.8,-,N/A,,Overcast,360,2013-07-23 05:55:00
1:15 AM,71.1,60.6,69,29.76,10.0,North,8.1,-,N/A,,Overcast,350,2013-07-23 06:15:00
1:35 AM,70.2,59.9,70,29.75,10.0,NNW,6.9,-,N/A,,Mostly Cloudy,340,2013-07-23 06:35:00
1:55 AM,69.3,59.4,71,29.75,10.0,NNW,3.5,-,N/A,,Mostly Cloudy,340,2013-07-23 06:55:00
2:15 AM,69.3,59.7,72,29.75,10.0,NW,4.6,-,N/A,,Overcast,310,2013-07-23 07:15:00
2:35 AM,69.4,58.6,68,29.76,10.0,NW,4.6,-,N/A,,Overcast,320,2013-07-23 07:35:00
2:55 AM,69.3,58.3,68,29.76,10.0,Calm,Calm,-,N/A,,Mostly Cloudy,0,2013-07-23 07:55:00
3:15 AM,67.5,58.3,72,29.77,10.0,Calm,Calm,-,N/A,,Scattered Clouds,0,2013-07-23 08:15:00
3:35 AM,66.0,57.6,74,29.77,10.0,Calm,Calm,-,N/A,,Clear,0,2013-07-23 08:35:00
3:55 AM,64.6,57.4,77,29.76,10.0,Calm,Calm,-,N/A,,Clear,0,2013-07-23 08:55:00
4:15 AM,64.2,57.2,78,29.77,10.0,NNW,4.6,-,N/A,,Clear,330,2013-07-23 09:15:00
4:35 AM,63.1,57.2,81,29.78,10.0,NNW,3.5,-,N/A,,Scattered Clouds,330,2013-07-23 09:35:00
4:55 AM,64.0,56.8,77,29.79,10.0,NW,3.5,-,N/A,,Scattered Clouds,320,2013-07-23 09:55:00
5:15 AM,62.6,56.3,80,29.79,10.0,NW,3.5,-,N/A,,Clear,320,2013-07-23 10:15:00
5:35 AM,62.2,55.6,79,29.80,10.0,NW,3.5,-,N/A,,Clear,320,2013-07-23 10:35:00
5:55 AM,61.7,54.7,78,29.81,10.0,Calm,Calm,-,N/A,,Clear,0,2013-07-23 10:55:00
6:15 AM,62.1,54.7,77,29.81,10.0,Calm,Calm,-,N/A,,Clear,0,2013-07-23 11:15:00
6:35 AM,63.1,53.8,71,29.82,10.0,NW,11.5,18.4,N/A,,Clear,320,2013-07-23 11:35:00
6:55 AM,64.0,53.6,69,29.82,10.0,NNW,6.9,21.9,N/A,,Clear,330,2013-07-23 11:55:00
7:15 AM,64.4,53.1,67,29.83,10.0,NNW,11.5,16.1,N/A,,Clear,330,2013-07-23 12:15:00
7:35 AM,65.1,52.7,64,29.84,10.0,NNW,11.5,17.3,N/A,,Clear,340,2013-07-23 12:35:00
7:55 AM,65.7,52.9,63,29.84,10.0,North,13.8,-,N/A,,Clear,350,2013-07-23 12:55:00
8:15 AM,66.2,52.0,60,29.85,10.0,NNW,11.5,16.1,N/A,,Clear,340,2013-07-23 13:15:00
8:35 AM,67.5,51.4,56,29.86,10.0,North,13.8,18.4,N/A,,Clear,350,2013-07-23 13:35:00
8:55 AM,68.0,50.7,54,29.87,10.0,NNW,12.7,17.3,N/A,,Clear,330,2013-07-23 13:55:00
9:15 AM,68.4,50.4,53,29.88,10.0,North,10.4,18.4,N/A,,Clear,360,2013-07-23 14:15:00
9:35 AM,68.5,50.0,52,29.88,10.0,NNW,11.5,18.4,N/A,,Scattered Clouds,330,2013-07-23 14:35:00
9:55 AM,68.5,49.8,51,29.88,10.0,NNW,11.5,18.4,N/A,,Scattered Clouds,340,2013-07-23 14:55:00
10:15 AM,69.6,48.9,48,29.89,10.0,NNW,10.4,17.3,N/A,,Scattered Clouds,340,2013-07-23 15:15:00
10:35 AM,68.4,48.7,49,29.90,10.0,NW,13.8,20.7,N/A,,Mostly Cloudy,320,2013-07-23 15:35:00
10:55 AM,70.2,48.2,46,29.90,10.0,North,11.5,21.9,N/A,,Scattered Clouds,350,2013-07-23 15:55:00
11:15 AM,70.9,48.2,44,29.91,10.0,NW,12.7,20.7,N/A,,Mostly Cloudy,320,2013-07-23 16:15:00
11:35 AM,70.7,48.0,44,29.92,10.0,NNW,16.1,19.6,N/A,,Scattered Clouds,340,2013-07-23 16:35:00
11:55 AM,71.1,47.8,44,29.93,10.0,North,12.7,18.4,N/A,,Scattered Clouds,350,2013-07-23 16:55:00
12:15 PM,71.1,47.5,43,29.93,10.0,NNW,8.1,-,N/A,,Mostly Cloudy,340,2013-07-23 17:15:00
12:35 PM,69.8,47.5,45,29.93,10.0,NNW,10.4,17.3,N/A,,Mostly Cloudy,340,2013-07-23 17:35:00
12:55 PM,71.1,48.0,44,29.93,10.0,NW,12.7,-,N/A,,Overcast,320,2013-07-23 17:55:00
1:15 PM,70.5,47.8,44,29.94,10.0,North,10.4,17.3,N/A,,Overcast,350,2013-07-23 18:15:00
1:35 PM,71.2,47.8,43,29.94,10.0,NW,12.7,16.1,N/A,,Overcast,320,2013-07-23 18:35:00
1:55 PM,73.2,46.9,39,29.93,10.0,NNE,11.5,16.1,N/A,,Mostly Cloudy,20,2013-07-23 18:55:00
2:15 PM,72.9,47.3,40,29.94,10.0,North,8.1,16.1,N/A,,Mostly Cloudy,360,2013-07-23 19:15:00
2:35 PM,73.8,47.3,39,29.94,10.0,North,9.2,-,N/A,,Mostly Cloudy,360,2013-07-23 19:35:00
3:15 PM,73.4,47.1,39,29.94,10.0,North,6.9,-,N/A,,Overcast,360,2013-07-23 20:15:00
3:35 PM,74.8,46.4,36,29.94,10.0,North,9.2,16.1,N/A,,Mostly Cloudy,360,2013-07-23 20:35:00
3:55 PM,76.5,46.0,34,29.94,10.0,NW,9.2,18.4,N/A,,Mostly Cloudy,320,2013-07-23 20:55:00
4:15 PM,75.2,46.0,35,29.94,10.0,NNW,11.5,-,N/A,,Mostly Cloudy,340,2013-07-23 21:15:00
4:35 PM,74.7,46.0,36,29.95,10.0,North,8.1,-,N/A,,Mostly Cloudy,10,2013-07-23 21:35:00
4:55 PM,73.2,46.0,38,29.95,10.0,NNE,6.9,-,N/A,,Mostly Cloudy,20,2013-07-23 21:55:00
5:15 PM,74.7,46.8,37,29.94,10.0,NNW,8.1,-,N/A,,Overcast,340,2013-07-23 22:15:00
5:35 PM,75.6,45.1,34,29.94,10.0,North,6.9,-,N/A,,Mostly Cloudy,350,2013-07-23 22:35:00
5:55 PM,72.7,46.8,40,29.95,10.0,NNE,9.2,-,N/A,,Scattered Clouds,20,2013-07-23 22:55:00
6:15 PM,74.5,45.1,35,29.94,10.0,North,5.8,-,N/A,,Mostly Cloudy,350,2013-07-23 23:15:00
6:35 PM,74.5,46.4,37,29.94,10.0,North,6.9,-,N/A,,Mostly Cloudy,10,2013-07-23 23:35:00
6:55 PM,73.0,46.0,38,29.95,10.0,North,5.8,-,N/A,,Scattered Clouds,10,2013-07-23 23:55:00
7:15 PM,72.5,46.4,39,29.95,10.0,North,6.9,-,N/A,,Clear,350,2013-07-24 00:15:00
7:35 PM,71.4,47.1,42,29.96,10.0,North,6.9,-,N/A,,Clear,360,2013-07-24 00:35:00
7:55 PM,70.0,47.7,45,29.96,10.0,North,4.6,-,N/A,,Clear,360,2013-07-24 00:55:00
8:15 PM,67.6,48.2,50,29.97,10.0,North,4.6,-,N/A,,Clear,350,2013-07-24 01:15:00
8:35 PM,65.7,48.7,54,29.97,10.0,North,4.6,-,N/A,,Clear,350,2013-07-24 01:35:00
8:55 PM,63.7,48.9,59,29.98,10.0,NNW,3.5,-,N/A,,Clear,340,2013-07-24 01:55:00
9:15 PM,62.2,48.7,61,29.99,10.0,NNW,3.5,-,N/A,,Clear,340,2013-07-24 02:15:00
9:35 PM,61.5,48.2,62,30.00,10.0,North,4.6,-,N/A,,Clear,350,2013-07-24 02:35:00
9:55 PM,61.2,48.2,62,30.01,10.0,North,3.5,-,N/A,,Clear,350,2013-07-24 02:55:00
10:15 PM,59.7,47.7,64,30.01,10.0,North,3.5,-,N/A,,Clear,350,2013-07-24 03:15:00
10:35 PM,58.8,47.8,67,30.01,10.0,North,3.5,-,N/A,,Clear,350,2013-07-24 03:35:00
10:55 PM,57.9,47.7,69,30.02,10.0,NNW,4.6,-,N/A,,Clear,340,2013-07-24 03:55:00
11:15 PM,56.3,48.0,74,30.02,10.0,Calm,Calm,-,N/A,,Clear,0,2013-07-24 04:15:00
11:35 PM,56.5,48.6,75,30.02,10.0,Calm,Calm,-,N/A,,Clear,0,2013-07-24 04:35:00
11:55 PM,56.8,48.0,72,30.03,10.0,Calm,Calm,-,N/A,,Clear,0,2013-07-24 04:55:00